createdAt,value
2023-06-04T00:01:40.416Z,17.40
2023-06-04T00:04:07.836Z,17.40
2023-06-04T00:06:35.860Z,17.20
2023-06-04T00:09:03.078Z,17.30
2023-06-04T00:11:30.464Z,17.20
2023-06-04T00:13:58.024Z,17.30
2023-06-04T00:16:28.345Z,16.90
2023-06-04T00:18:56.108Z,17.00
2023-06-04T00:21:23.971Z,17.10
2023-06-04T00:23:51.609Z,17.00
2023-06-04T00:26:22.750Z,16.80
2023-06-04T00:28:50.146Z,17.10
2023-06-04T00:31:17.731Z,16.90
2023-06-04T00:33:45.360Z,16.70
2023-06-04T00:36:13.173Z,16.70
2023-06-04T00:38:40.751Z,16.80
2023-06-04T00:41:08.236Z,16.20
2023-06-04T00:43:37.126Z,16.40
2023-06-04T00:46:04.557Z,16.40
2023-06-04T00:48:32.337Z,16.20
2023-06-04T00:50:59.931Z,16.20
2023-06-04T00:53:27.909Z,16.20
2023-06-04T00:55:55.257Z,16.60
2023-06-04T00:58:26.201Z,16.70
2023-06-04T01:00:56.752Z,16.40
2023-06-04T01:03:27.013Z,16.50
2023-06-04T01:06:22.533Z,16.30
2023-06-04T01:08:54.316Z,16.60
2023-06-04T01:11:41.889Z,16.50
2023-06-04T01:14:11.341Z,16.50
2023-06-04T01:16:42.210Z,16.30
2023-06-04T01:19:52.571Z,16.20
2023-06-04T01:22:42.783Z,16.10
2023-06-04T01:25:27.174Z,15.90
2023-06-04T01:27:58.492Z,15.90
2023-06-04T01:30:31.806Z,16.00
2023-06-04T01:33:00.786Z,15.90
2023-06-04T01:35:29.500Z,15.90
2023-06-04T01:37:57.265Z,16.00
2023-06-04T01:40:27.072Z,16.00
2023-06-04T01:42:55.436Z,15.80
2023-06-04T01:45:29.056Z,16.00
2023-06-04T01:48:00.568Z,16.10
2023-06-04T01:50:28.336Z,16.00
2023-06-04T01:52:56.043Z,15.90
2023-06-04T01:55:29.430Z,16.00
2023-06-04T01:57:57.585Z,15.90
2023-06-04T02:00:25.169Z,16.10
2023-06-04T02:02:53.353Z,15.80
2023-06-04T02:05:28.881Z,15.80
2023-06-04T02:07:58.600Z,15.70
2023-06-04T02:10:26.956Z,15.80
2023-06-04T02:13:05.927Z,15.60
2023-06-04T02:15:33.654Z,15.50
2023-06-04T02:18:24.347Z,15.50
2023-06-04T02:20:52.669Z,15.40
2023-06-04T02:23:21.522Z,15.50
2023-06-04T02:25:51.128Z,15.50
2023-06-04T02:28:21.466Z,15.20
2023-06-04T02:30:49.110Z,15.20
2023-06-04T02:33:16.653Z,15.30
2023-06-04T02:35:44.633Z,15.30
2023-06-04T02:38:11.909Z,15.40
2023-06-04T02:40:42.299Z,15.40
2023-06-04T02:43:12.400Z,15.40
2023-06-04T02:45:40.114Z,15.50
2023-06-04T02:48:07.803Z,15.50
2023-06-04T02:50:35.359Z,15.40
2023-06-04T02:53:05.637Z,15.20
2023-06-04T02:55:33.126Z,15.10
2023-06-04T02:58:00.337Z,15.30
2023-06-04T03:00:28.644Z,15.20
2023-06-04T03:03:03.046Z,15.30
2023-06-04T03:05:34.499Z,15.20
2023-06-04T03:08:04.055Z,15.20
2023-06-04T03:10:32.535Z,15.10
2023-06-04T03:13:00.330Z,15.10
2023-06-04T03:15:28.714Z,15.30
2023-06-04T03:17:56.411Z,15.20
2023-06-04T03:20:25.583Z,15.30
2023-06-04T03:22:53.537Z,15.10
2023-06-04T03:25:21.080Z,15.10
2023-06-04T03:27:54.509Z,15.00
2023-06-04T03:30:22.574Z,15.10
2023-06-04T03:32:50.044Z,15.00
2023-06-04T03:35:17.886Z,14.80
2023-06-04T03:37:45.238Z,15.10
2023-06-04T03:40:13.315Z,14.90
2023-06-04T03:42:40.774Z,15.20
2023-06-04T03:45:08.441Z,15.10
2023-06-04T03:47:35.746Z,14.90
2023-06-04T03:50:04.069Z,15.10
2023-06-04T03:52:31.618Z,15.00
2023-06-04T03:54:59.596Z,15.20
2023-06-04T03:57:27.055Z,14.90
2023-06-04T03:59:54.110Z,14.90
2023-06-04T04:02:21.308Z,15.10
2023-06-04T04:04:49.634Z,14.90
2023-06-04T04:07:17.020Z,15.20
2023-06-04T04:09:46.025Z,15.00
2023-06-04T04:12:13.461Z,15.20
2023-06-04T04:14:41.201Z,15.20
2023-06-04T04:17:09.019Z,15.20
2023-06-04T04:19:37.336Z,15.30
2023-06-04T04:22:05.152Z,15.50
2023-06-04T04:24:35.450Z,15.50
2023-06-04T04:27:05.068Z,15.50
2023-06-04T04:29:38.091Z,15.60
2023-06-04T04:32:11.880Z,15.60
2023-06-04T04:34:44.580Z,16.10
2023-06-04T04:37:12.428Z,16.00
2023-06-04T04:39:40.319Z,15.90
2023-06-04T04:42:07.979Z,16.00
2023-06-04T04:44:35.033Z,15.80
2023-06-04T04:47:02.626Z,16.00
2023-06-04T04:49:30.453Z,16.40
2023-06-04T04:51:58.329Z,16.30
2023-06-04T04:54:25.788Z,16.30
2023-06-04T04:57:01.615Z,16.50
2023-06-04T04:59:39.637Z,16.60
2023-06-04T05:04:32.413Z,16.90
2023-06-04T05:06:59.449Z,17.10
2023-06-04T05:09:26.708Z,17.30
2023-06-04T05:11:54.071Z,16.90
2023-06-04T05:14:21.388Z,17.40
2023-06-04T05:16:50.149Z,17.50
2023-06-04T05:19:18.104Z,17.30
2023-06-04T05:21:46.030Z,17.30
2023-06-04T05:24:13.930Z,16.80
2023-06-04T05:26:41.053Z,17.10
2023-06-04T05:29:08.829Z,17.30
2023-06-04T05:31:36.290Z,17.40
2023-06-04T05:34:05.759Z,17.80
2023-06-04T05:36:32.995Z,17.50
2023-06-04T05:39:01.386Z,17.60
2023-06-04T05:41:29.846Z,17.60
2023-06-04T05:43:57.052Z,17.70
2023-06-04T05:46:24.336Z,18.00
2023-06-04T05:48:52.392Z,17.90
2023-06-04T05:51:19.541Z,18.10
2023-06-04T05:53:48.308Z,18.10
2023-06-04T05:56:16.014Z,18.20
2023-06-04T05:58:43.262Z,18.10
2023-06-04T06:01:10.807Z,18.50
2023-06-04T06:03:38.044Z,18.40
2023-06-04T06:06:07.016Z,18.60
2023-06-04T06:08:34.374Z,18.40
2023-06-04T06:11:02.034Z,18.70
2023-06-04T06:13:32.573Z,18.80
2023-06-04T06:16:00.203Z,18.60
2023-06-04T06:18:27.507Z,18.60
2023-06-04T06:20:55.111Z,18.90
2023-06-04T06:23:24.279Z,18.80
2023-06-04T06:25:53.125Z,19.00
2023-06-04T06:28:20.320Z,19.20
2023-06-04T06:30:48.948Z,19.20
2023-06-04T06:33:17.456Z,19.50
2023-06-04T06:35:47.766Z,19.50
2023-06-04T06:38:17.144Z,19.20
2023-06-04T06:40:46.234Z,19.50
2023-06-04T06:43:13.512Z,19.60
2023-06-04T06:45:41.214Z,19.70
2023-06-04T06:48:10.344Z,19.60
2023-06-04T06:50:38.141Z,19.50
2023-06-04T06:53:05.710Z,19.90
2023-06-04T06:55:33.060Z,19.60
2023-06-04T06:58:04.937Z,19.80
2023-06-04T07:00:32.704Z,20.20
2023-06-04T07:03:00.039Z,20.40
2023-06-04T07:05:27.483Z,20.50
2023-06-04T07:07:55.773Z,20.60
2023-06-04T07:10:22.938Z,20.60
2023-06-04T07:12:50.525Z,20.40
2023-06-04T07:15:18.207Z,20.70
2023-06-04T07:17:45.980Z,20.90
2023-06-04T07:20:13.411Z,21.10
2023-06-04T07:22:50.854Z,21.20
2023-06-04T07:25:18.305Z,21.30
2023-06-04T07:27:46.388Z,21.40
2023-06-04T07:30:14.047Z,21.40
2023-06-04T07:32:41.611Z,21.30
2023-06-04T07:35:09.702Z,21.60
2023-06-04T07:37:37.335Z,21.80
2023-06-04T07:40:05.108Z,21.90
2023-06-04T07:42:32.719Z,22.10
2023-06-04T07:45:00.541Z,22.30
2023-06-04T07:47:28.091Z,22.40
2023-06-04T07:50:02.555Z,22.50
2023-06-04T07:52:34.893Z,22.60
2023-06-04T07:55:02.676Z,22.70
2023-06-04T07:57:30.578Z,22.90
2023-06-04T07:59:58.217Z,22.90
2023-06-04T08:02:25.407Z,23.00
2023-06-04T08:04:53.842Z,23.10
2023-06-04T08:07:20.964Z,23.10
2023-06-04T08:09:48.228Z,23.10
2023-06-04T08:12:17.498Z,23.10
2023-06-04T08:14:45.168Z,23.10
2023-06-04T08:17:12.823Z,23.00
2023-06-04T08:19:40.393Z,23.10
2023-06-04T08:22:08.107Z,23.10
2023-06-04T08:24:35.517Z,23.10
2023-06-04T08:27:02.849Z,23.10
2023-06-04T08:29:29.970Z,23.10
2023-06-04T08:31:57.871Z,23.10
2023-06-04T08:34:24.969Z,23.10
2023-06-04T08:36:52.257Z,23.00
2023-06-04T08:39:19.725Z,22.90
2023-06-04T08:41:56.142Z,22.90
2023-06-04T08:44:23.565Z,23.00
2023-06-04T08:46:54.564Z,23.00
2023-06-04T08:49:24.611Z,23.00
2023-06-04T08:51:52.416Z,23.10
2023-06-04T08:54:19.953Z,23.10
2023-06-04T08:56:50.214Z,23.10
2023-06-04T08:59:17.953Z,23.20
2023-06-04T09:01:48.126Z,23.30
2023-06-04T09:04:16.332Z,23.50
2023-06-04T09:06:44.170Z,23.60
2023-06-04T09:09:14.615Z,23.60
2023-06-04T09:12:02.959Z,23.60
2023-06-04T09:14:30.299Z,23.70
2023-06-04T09:17:00.031Z,23.70
2023-06-04T09:22:08.244Z,23.80
2023-06-04T09:24:43.984Z,23.80
2023-06-04T09:27:20.152Z,23.90
2023-06-04T09:29:55.034Z,24.00
2023-06-04T09:32:28.232Z,24.20
2023-06-04T09:34:58.836Z,24.40
2023-06-04T09:37:28.006Z,24.60
2023-06-04T09:39:58.586Z,24.80
2023-06-04T09:42:25.978Z,25.00
2023-06-04T09:44:53.545Z,25.20
2023-06-04T09:47:21.019Z,25.40
2023-06-04T09:49:52.067Z,25.50
2023-06-04T09:52:19.325Z,25.60
2023-06-04T09:54:46.748Z,25.50
2023-06-04T09:57:18.610Z,25.40
2023-06-04T09:59:47.272Z,25.30
2023-06-04T10:02:18.112Z,25.30
2023-06-04T10:04:49.624Z,25.40
2023-06-04T10:07:59.606Z,25.60
2023-06-04T10:10:31.765Z,25.70
2023-06-04T10:13:11.036Z,25.80
2023-06-04T10:15:39.123Z,25.90
2023-06-04T10:18:07.413Z,25.70
2023-06-04T10:20:35.710Z,25.70
2023-06-04T10:23:05.568Z,25.60
2023-06-04T10:25:33.634Z,25.60
2023-06-04T10:28:02.957Z,25.70
2023-06-04T10:30:31.731Z,26.00
2023-06-04T10:33:00.176Z,26.00
2023-06-04T10:35:35.038Z,26.00
2023-06-04T10:38:14.894Z,25.90
2023-06-04T10:40:42.491Z,26.00
2023-06-04T10:43:11.911Z,26.10
2023-06-04T10:45:40.045Z,26.20
2023-06-04T10:48:09.381Z,26.30
2023-06-04T10:50:50.013Z,26.40
2023-06-04T10:53:20.172Z,26.70
2023-06-04T10:55:51.171Z,26.90
2023-06-04T10:58:19.394Z,27.10
2023-06-04T11:00:50.653Z,27.30
2023-06-04T11:03:18.731Z,27.50
2023-06-04T11:05:48.036Z,27.60
2023-06-04T11:08:16.256Z,27.80
2023-06-04T11:10:45.604Z,27.90
2023-06-04T11:13:13.231Z,28.00
2023-06-04T11:15:42.817Z,28.10
2023-06-04T11:18:14.843Z,28.00
2023-06-04T11:20:43.906Z,28.10
2023-06-04T11:23:14.372Z,28.00
2023-06-04T11:25:43.726Z,28.10
2023-06-04T11:28:20.336Z,28.20
2023-06-04T11:31:12.854Z,28.40
2023-06-04T11:33:47.078Z,28.70
2023-06-04T11:36:29.129Z,29.00
2023-06-04T11:39:02.388Z,29.20
2023-06-04T11:41:33.966Z,29.50
2023-06-04T11:44:08.218Z,29.70
2023-06-04T11:46:45.214Z,29.90
2023-06-04T11:49:20.423Z,30.10
2023-06-04T11:51:54.345Z,30.10
2023-06-04T11:54:23.367Z,30.20
2023-06-04T11:56:53.016Z,30.20
2023-06-04T11:59:20.969Z,30.20
2023-06-04T12:01:50.110Z,30.30
2023-06-04T12:04:19.734Z,30.40
2023-06-04T12:07:03.695Z,30.50
2023-06-04T12:09:37.560Z,30.70
2023-06-04T12:12:14.409Z,30.90
2023-06-04T12:14:41.774Z,31.20
2023-06-04T12:17:10.429Z,31.30
2023-06-04T12:19:49.978Z,31.40
2023-06-04T12:22:17.964Z,31.50
2023-06-04T12:25:01.819Z,31.70
2023-06-04T12:27:29.046Z,31.90
2023-06-04T12:30:05.012Z,32.00
2023-06-04T12:32:35.759Z,32.00
2023-06-04T12:35:03.009Z,32.10
2023-06-04T12:37:30.402Z,32.00
2023-06-04T12:39:57.822Z,32.00
2023-06-04T12:42:25.352Z,32.10
2023-06-04T12:45:01.502Z,32.10
2023-06-04T12:47:29.396Z,32.20
2023-06-04T12:49:57.158Z,32.30
2023-06-04T12:52:32.443Z,32.40
2023-06-04T12:55:00.246Z,32.50
2023-06-04T12:57:28.109Z,32.70
2023-06-04T12:59:56.457Z,32.70
2023-06-04T13:02:24.556Z,32.80
2023-06-04T13:04:56.026Z,32.90
2023-06-04T13:07:25.556Z,33.00
2023-06-04T13:09:55.220Z,33.00
2023-06-04T13:12:22.776Z,33.00
2023-06-04T13:14:50.334Z,33.10
2023-06-04T13:17:22.682Z,33.10
2023-06-04T13:19:59.982Z,33.20
2023-06-04T13:22:27.970Z,33.20
2023-06-04T13:24:55.206Z,33.20
2023-06-04T13:27:22.979Z,33.30
2023-06-04T13:29:50.484Z,33.40
2023-06-04T13:32:17.917Z,33.50
2023-06-04T13:34:45.726Z,33.70
2023-06-04T13:37:13.932Z,33.70
2023-06-04T13:39:41.879Z,33.80
2023-06-04T13:42:09.178Z,33.90
2023-06-04T13:44:36.891Z,34.10
2023-06-04T13:47:05.550Z,34.20
2023-06-04T13:49:34.882Z,34.40
2023-06-04T13:52:02.588Z,34.70
2023-06-04T13:54:30.317Z,34.90
2023-06-04T13:56:57.973Z,34.90
2023-06-04T13:59:25.644Z,34.50
2023-06-04T14:01:52.922Z,33.90
2023-06-04T14:04:20.229Z,33.40
2023-06-04T14:06:48.393Z,33.10
2023-06-04T14:09:16.949Z,33.30
2023-06-04T14:11:45.615Z,33.60
2023-06-04T14:14:14.664Z,34.00
2023-06-04T14:16:42.143Z,34.40
2023-06-04T14:19:10.442Z,34.70
2023-06-04T14:21:38.245Z,35.00
2023-06-04T14:24:06.285Z,35.10
2023-06-04T14:26:35.077Z,35.20
2023-06-04T14:29:02.639Z,35.10
2023-06-04T14:31:29.819Z,35.10
2023-06-04T14:33:57.412Z,35.00
2023-06-04T14:36:25.543Z,35.10
2023-06-04T14:38:56.012Z,35.10
2023-06-04T14:41:23.768Z,35.20
2023-06-04T14:43:51.075Z,35.30
2023-06-04T14:46:18.503Z,35.50
2023-06-04T14:48:46.243Z,35.70
2023-06-04T14:51:14.182Z,35.70
2023-06-04T14:53:42.311Z,35.20
2023-06-04T14:56:15.379Z,34.60
2023-06-04T14:58:42.912Z,33.90
2023-06-04T15:01:11.679Z,33.20
2023-06-04T15:03:42.311Z,32.60
2023-06-04T15:06:18.920Z,32.10
2023-06-04T15:08:47.552Z,32.10
2023-06-04T15:11:16.989Z,32.50
2023-06-04T15:13:44.461Z,33.10
2023-06-04T15:16:11.981Z,33.60
2023-06-04T15:18:39.671Z,34.00
2023-06-04T15:21:07.522Z,34.30
2023-06-04T15:23:35.824Z,34.40
2023-06-04T15:26:03.162Z,34.70
2023-06-04T15:28:30.725Z,34.90
2023-06-04T15:30:58.331Z,35.10
2023-06-04T15:33:28.665Z,34.80
2023-06-04T15:35:57.775Z,34.30
2023-06-04T15:38:26.503Z,33.60
2023-06-04T15:40:56.436Z,33.40
2023-06-04T15:43:23.592Z,33.10
2023-06-04T15:45:51.400Z,32.60
2023-06-04T15:48:19.834Z,32.10
2023-06-04T15:50:47.190Z,31.60
2023-06-04T15:53:15.662Z,31.20
2023-06-04T15:55:44.504Z,31.10
2023-06-04T15:58:14.949Z,31.20
2023-06-04T16:00:42.532Z,31.60
2023-06-04T16:03:09.750Z,31.80
2023-06-04T16:05:37.571Z,32.00
2023-06-04T16:08:05.191Z,31.90
2023-06-04T16:10:33.361Z,31.60
2023-06-04T16:13:04.073Z,31.20
2023-06-04T16:15:31.494Z,30.90
2023-06-04T16:17:58.874Z,30.60
2023-06-04T16:20:26.435Z,30.30
2023-06-04T16:22:53.584Z,30.30
2023-06-04T16:25:21.162Z,30.40
2023-06-04T16:27:48.538Z,30.40
2023-06-04T16:30:16.190Z,30.40
2023-06-04T16:32:43.639Z,30.30
2023-06-04T16:35:11.885Z,30.10
2023-06-04T16:37:39.423Z,29.90
2023-06-04T16:40:07.827Z,29.60
2023-06-04T16:42:35.694Z,29.40
2023-06-04T16:45:04.376Z,29.10
2023-06-04T16:47:31.745Z,28.90
2023-06-04T16:49:59.541Z,28.70
2023-06-04T16:52:26.791Z,28.70
2023-06-04T16:54:57.102Z,28.70
2023-06-04T16:57:24.768Z,28.70
2023-06-04T16:59:52.671Z,28.80
2023-06-04T17:02:20.584Z,28.90
2023-06-04T17:04:48.029Z,29.00
2023-06-04T17:07:15.536Z,29.00
2023-06-04T17:09:43.622Z,29.00
2023-06-04T17:12:10.914Z,29.00
2023-06-04T17:14:38.867Z,28.90
2023-06-04T17:17:06.663Z,28.90
2023-06-04T17:19:37.166Z,29.00
2023-06-04T17:22:07.204Z,29.00
2023-06-04T17:24:37.438Z,28.90
2023-06-04T17:27:05.376Z,28.80
2023-06-04T17:29:32.787Z,28.80
2023-06-04T17:31:59.766Z,28.90
2023-06-04T17:34:26.979Z,29.00
2023-06-04T17:36:56.224Z,29.40
2023-06-04T17:39:24.004Z,29.60
2023-06-04T17:41:51.445Z,29.90
2023-06-04T17:44:18.743Z,30.00
2023-06-04T17:46:47.908Z,30.10
2023-06-04T17:49:16.410Z,30.10
2023-06-04T17:51:43.691Z,30.10
2023-06-04T17:54:11.065Z,30.10
2023-06-04T17:56:39.227Z,30.10
2023-06-04T17:59:07.512Z,29.70
2023-06-04T18:01:34.594Z,29.40
2023-06-04T18:04:04.928Z,29.00
2023-06-04T18:06:32.144Z,28.60
2023-06-04T18:08:59.418Z,28.30
2023-06-04T18:11:26.812Z,28.00
2023-06-04T18:13:54.664Z,27.80
2023-06-04T18:16:21.971Z,27.50
2023-06-04T18:18:49.330Z,27.20
2023-06-04T18:21:16.671Z,26.90
2023-06-04T18:23:50.945Z,26.70
2023-06-04T18:26:19.420Z,26.50
2023-06-04T18:28:46.722Z,26.40
2023-06-04T18:31:14.177Z,26.30
2023-06-04T18:33:54.682Z,26.30
2023-06-04T18:36:21.785Z,26.40
2023-06-04T18:38:48.844Z,26.40
2023-06-04T18:41:16.881Z,26.30
2023-06-04T18:43:44.371Z,26.10
2023-06-04T18:46:12.653Z,26.00
2023-06-04T18:48:40.111Z,25.70
2023-06-04T18:51:07.237Z,25.60
2023-06-04T18:53:34.451Z,25.40
2023-06-04T18:56:03.821Z,25.20
2023-06-04T18:58:31.000Z,25.00
2023-06-04T19:00:58.528Z,24.80
2023-06-04T19:03:26.029Z,24.70
2023-06-04T19:05:53.932Z,24.50
2023-06-04T19:08:21.267Z,24.30
2023-06-04T19:10:52.795Z,24.20
2023-06-04T19:13:20.137Z,23.90
2023-06-04T19:15:47.267Z,23.80
2023-06-04T19:18:17.739Z,23.60
2023-06-04T19:20:44.887Z,23.40
2023-06-04T19:23:12.637Z,23.20
2023-06-04T19:25:39.980Z,23.10
2023-06-04T19:28:07.551Z,23.00
2023-06-04T19:30:34.763Z,23.00
2023-06-04T19:33:02.430Z,22.90
2023-06-04T19:35:30.521Z,22.90
2023-06-04T19:37:57.772Z,22.80
2023-06-04T19:40:25.188Z,22.70
2023-06-04T19:42:53.274Z,22.60
2023-06-04T19:45:20.650Z,22.40
2023-06-04T19:47:48.209Z,22.30
2023-06-04T19:50:19.067Z,22.10
2023-06-04T19:52:47.768Z,21.90
2023-06-04T19:55:15.101Z,21.80
2023-06-04T19:57:42.897Z,21.60
2023-06-04T20:00:10.964Z,21.50
2023-06-04T20:02:39.121Z,21.40
2023-06-04T20:05:07.269Z,21.40
2023-06-04T20:07:36.038Z,21.30
2023-06-04T20:10:03.597Z,21.20
2023-06-04T20:12:33.542Z,21.10
2023-06-04T20:15:04.269Z,21.10
2023-06-04T20:17:31.786Z,21.00
2023-06-04T20:19:59.363Z,20.90
2023-06-04T20:22:26.715Z,20.90
2023-06-04T20:24:56.801Z,20.70
2023-06-04T20:27:25.157Z,20.70
2023-06-04T20:29:52.703Z,20.50
2023-06-04T20:32:21.128Z,20.50
2023-06-04T20:34:49.190Z,20.40
2023-06-04T20:37:16.871Z,20.40
2023-06-04T20:39:48.765Z,20.20
2023-06-04T20:42:16.909Z,20.20
2023-06-04T20:44:44.776Z,19.90
2023-06-04T20:47:11.978Z,20.10
2023-06-04T20:49:39.618Z,20.10
2023-06-04T20:52:07.199Z,19.70
2023-06-04T20:54:34.646Z,19.90
2023-06-04T20:57:07.324Z,19.70
2023-06-04T20:59:34.668Z,19.90
2023-06-04T21:02:05.973Z,20.00
2023-06-04T21:04:33.373Z,19.70
2023-06-04T21:07:03.264Z,19.60
2023-06-04T21:09:30.469Z,19.60
2023-06-04T21:11:58.781Z,19.60
2023-06-04T21:14:26.075Z,19.70
2023-06-04T21:16:54.011Z,19.50
2023-06-04T21:19:21.315Z,19.70
2023-06-04T21:21:48.675Z,19.50
2023-06-04T21:24:27.115Z,19.70
2023-06-04T21:26:57.330Z,19.70
2023-06-04T21:29:24.782Z,19.70
2023-06-04T21:32:00.867Z,19.50
2023-06-04T21:34:27.949Z,19.80
2023-06-04T21:36:55.117Z,19.50
2023-06-04T21:39:22.462Z,19.70
2023-06-04T21:41:49.675Z,19.80
2023-06-04T21:44:16.852Z,19.90
2023-06-04T21:46:44.792Z,19.70
2023-06-04T21:49:12.283Z,19.40
2023-06-04T21:51:41.403Z,19.40
2023-06-04T21:54:10.171Z,19.30
2023-06-04T21:56:38.012Z,19.40
2023-06-04T21:59:05.905Z,19.10
2023-06-04T22:01:33.430Z,19.50
2023-06-04T22:04:01.348Z,19.10
2023-06-04T22:06:28.781Z,19.20
2023-06-04T22:08:56.238Z,19.00
2023-06-04T22:11:23.374Z,19.00
2023-06-04T22:13:50.972Z,18.80
2023-06-04T22:16:18.512Z,18.90
2023-06-04T22:18:53.137Z,19.00
2023-06-04T22:21:22.016Z,18.90
2023-06-04T22:23:49.405Z,18.80
2023-06-04T22:28:47.090Z,19.00
2023-06-04T22:31:14.554Z,18.80
2023-06-04T22:33:48.880Z,18.90
2023-06-04T22:36:16.681Z,18.90
2023-06-04T22:38:49.158Z,19.00
2023-06-04T22:41:19.196Z,18.80
2023-06-04T22:43:46.306Z,19.00
2023-06-04T22:46:13.877Z,18.70
2023-06-04T22:48:42.237Z,18.60
2023-06-04T22:51:10.416Z,18.60
2023-06-04T22:53:38.010Z,18.60
2023-06-04T22:56:10.330Z,18.60
2023-06-04T22:58:37.818Z,18.30
2023-06-04T23:01:05.288Z,18.40
2023-06-04T23:03:33.742Z,18.30
2023-06-04T23:06:02.419Z,18.10
2023-06-04T23:08:30.306Z,17.90
2023-06-04T23:11:09.970Z,18.00
2023-06-04T23:13:37.806Z,17.70
2023-06-04T23:16:05.931Z,17.80
2023-06-04T23:18:33.989Z,17.50
2023-06-04T23:21:01.556Z,17.50
2023-06-04T23:23:29.222Z,17.50
2023-06-04T23:25:58.422Z,17.10
2023-06-04T23:28:26.129Z,17.10
2023-06-04T23:30:53.596Z,17.10
2023-06-04T23:33:21.293Z,17.00
2023-06-04T23:35:49.569Z,17.00
2023-06-04T23:38:16.783Z,17.10
2023-06-04T23:40:44.140Z,17.00
2023-06-04T23:43:12.040Z,17.00
2023-06-04T23:45:39.731Z,16.60
2023-06-04T23:48:06.990Z,16.90
2023-06-04T23:50:34.585Z,17.00
2023-06-04T23:53:01.936Z,16.40
2023-06-04T23:55:29.599Z,16.60
2023-06-04T23:57:56.942Z,16.50
